Time;durP1;ratioP1;P1;durP2;ratioP2;P2;SDS_P1;SDS_P2;PMS_P1;PMS_P2;Temp;Humidity;BMP_temperature;BMP_pressure;BME280_temperature;BME280_humidity;BME280_pressure;Samples;Min_cycle;Max_cycle;Signal;HPM_P1;HPM_P2
2024/03/21 00:00:54;;;;;;;;;;;;;;;9.34;100.00;101454.63;6156425;23;19919;-77
2024/03/21 00:03:19;;;;;;;;;;;;;;;9.39;100.00;101446.84;6154150;23;19944;-77
2024/03/21 00:05:44;;;;;;;;;;;;;;;9.42;100.00;101454.56;6154526;23;19917;-76
2024/03/21 00:08:12;;;;;;;;;;;;;;;9.39;100.00;101449.53;6157154;23;19916;-77
2024/03/21 00:10:38;;;;;;;;;;;;;;;9.40;100.00;101451.22;6154682;23;20261;-76
2024/03/21 00:13:03;;;;;;;;;;;;;;;9.39;100.00;101460.28;6154500;23;19927;-76
2024/03/21 00:15:29;;;;;;;;;;;;;;;9.41;100.00;101450.22;6161421;23;20328;-76
2024/03/21 00:17:54;;;;;;;;;;;;;;;9.42;100.00;101465.31;6174062;23;19909;-77
2024/03/21 00:20:19;;;;;;;;;;;;;;;9.45;100.00;101462.28;6156342;23;19948;-77
2024/03/21 00:22:45;;;;;;;;;;;;;;;9.46;100.00;101466.66;6156240;23;19920;-77
2024/03/21 00:25:10;;;;;;;;;;;;;;;9.48;100.00;101461.94;6154494;23;19916;-76
2024/03/21 00:27:36;;;;;;;;;;;;;;;9.49;100.00;101471.69;6154431;23;20243;-76
2024/03/21 00:30:02;;;;;;;;;;;;;;;9.47;100.00;101462.97;6156402;23;19917;-76
2024/03/21 00:32:27;;;;;;;;;;;;;;;9.44;100.00;101455.25;6154176;23;19919;-76
2024/03/21 00:34:52;;;;;;;;;;;;;;;9.39;100.00;101465.66;6154923;23;19980;-76
2024/03/21 00:37:17;;;;;;;;;;;;;;;9.35;100.00;101464.34;6156612;23;19913;-76
2024/03/21 00:39:45;;;;;;;;;;;;;;;9.31;100.00;101463.84;6154462;23;19924;-76
2024/03/21 00:42:10;;;;;;;;;;;;;;;9.25;100.00;101460.00;6155367;23;19982;-76
2024/03/21 00:44:35;;;;;;;;;;;;;;;9.20;100.00;101461.53;6155797;23;20337;-77
2024/03/21 00:47:01;;;;;;;;;;;;;;;9.17;100.00;101462.75;6154692;23;20400;-77
2024/03/21 00:49:26;;;;;;;;;;;;;;;9.15;100.00;101464.75;6155338;23;19913;-76
2024/03/21 00:51:51;;;;;;;;;;;;;;;9.19;100.00;101465.25;6155028;23;19920;-76
2024/03/21 00:54:16;;;;;;;;;;;;;;;9.22;100.00;101463.03;6154610;23;19916;-76
2024/03/21 00:56:44;;;;;;;;;;;;;;;9.24;100.00;101466.38;6154789;23;19941;-76
2024/03/21 00:59:09;;;;;;;;;;;;;;;9.25;100.00;101469.94;6156459;23;19909;-77
2024/03/21 01:01:35;;;;;;;;;;;;;;;9.26;100.00;101471.63;6156898;23;19912;-76
2024/03/21 01:04:00;;;;;;;;;;;;;;;9.25;100.00;101480.69;6167684;23;19913;-77
2024/03/21 01:06:25;;;;;;;;;;;;;;;9.27;100.00;101478.63;6174684;23;19912;-76
2024/03/21 01:08:51;;;;;;;;;;;;;;;9.28;100.00;101491.06;6157752;23;20276;-77
2024/03/21 01:11:16;;;;;;;;;;;;;;;9.30;100.00;101482.84;6156731;23;20310;-76
2024/03/21 01:13:42;;;;;;;;;;;;;;;9.29;100.00;101484.69;6155733;23;19924;-77
2024/03/21 01:16:08;;;;;;;;;;;;;;;9.28;100.00;101485.69;6155323;23;19923;-77
2024/03/21 01:18:36;;;;;;;;;;;;;;;9.31;100.00;101490.72;6154907;23;19940;-76
2024/03/21 01:21:02;;;;;;;;;;;;;;;9.30;100.00;101493.59;6155356;23;19917;-76
2024/03/21 01:23:28;;;;;;;;;;;;;;;9.27;100.00;101489.38;6129052;23;19916;-76
2024/03/21 01:25:53;;;;;;;;;;;;;;;9.22;100.00;101487.22;6154534;23;19913;-76
2024/03/21 01:28:18;;;;;;;;;;;;;;;9.17;100.00;101488.75;6154749;23;19912;-77
2024/03/21 01:30:44;;;;;;;;;;;;;;;9.11;100.00;101484.91;6153658;23;19928;-76
2024/03/21 01:33:09;;;;;;;;;;;;;;;9.06;100.00;101488.13;6155017;23;19909;-76
2024/03/21 01:35:34;;;;;;;;;;;;;;;9.00;100.00;101487.97;6154460;23;19944;-76
2024/03/21 01:38:00;;;;;;;;;;;;;;;8.96;100.00;101482.06;6156777;23;19920;-76
2024/03/21 01:40:25;;;;;;;;;;;;;;;8.97;100.00;101483.75;6156451;23;19909;-76
2024/03/21 01:42:51;;;;;;;;;;;;;;;8.97;100.00;101483.75;6156483;23;19960;-76
2024/03/21 01:45:17;;;;;;;;;;;;;;;8.98;100.00;101495.34;6158066;23;19935;-77
2024/03/21 01:47:42;;;;;;;;;;;;;;;8.97;100.00;101483.75;6156575;23;20325;-77
2024/03/21 01:50:08;;;;;;;;;;;;;;;8.93;100.00;101483.25;6155416;23;19912;-77
2024/03/21 01:52:37;;;;;;;;;;;;;;;8.89;100.00;101479.22;6157717;23;19912;-77
2024/03/21 01:55:04;;;;;;;;;;;;;;;8.83;100.00;101466.47;6130887;23;19917;-76
2024/03/21 01:57:29;;;;;;;;;;;;;;;8.86;100.00;101468.84;6155394;23;20327;-77
2024/03/21 01:59:56;;;;;;;;;;;;;;;8.83;100.00;101460.28;6131222;23;19912;-76
2024/03/21 02:02:22;;;;;;;;;;;;;;;8.77;100.00;101461.81;6156782;23;20245;-76
2024/03/21 02:04:48;;;;;;;;;;;;;;;8.85;100.00;101459.09;6155288;23;20325;-77
2024/03/21 02:07:16;;;;;;;;;;;;;;;8.84;100.00;101464.66;6157648;23;19913;-76
2024/03/21 02:09:41;;;;;;;;;;;;;;;8.70;100.00;101466.16;6155957;23;19921;-76
2024/03/21 02:12:13;;;;;;;;;;;;;;;8.60;100.00;101461.81;6154671;23;19909;-76
2024/03/21 02:14:38;;;;;;;;;;;;;;;8.83;100.00;101463.78;6130939;23;19919;-76
2024/03/21 02:17:03;;;;;;;;;;;;;;;8.98;100.00;101463.94;6155174;23;19912;-77
2024/03/21 02:19:29;;;;;;;;;;;;;;;9.04;100.00;101465.97;6154741;23;19944;-76
2024/03/21 02:24:38;;;;;;;;;;;;;;;8.78;100.00;101469.69;6171519;23;19915;-76
2024/03/21 02:27:04;;;;;;;;;;;;;;;8.67;100.00;101466.50;6181269;23;19900;-76
2024/03/21 02:29:29;;;;;;;;;;;;;;;8.55;100.00;101460.66;6183829;23;19911;-76
2024/03/21 02:31:54;;;;;;;;;;;;;;;8.59;100.00;101467.34;6182903;23;19905;-76
2024/03/21 02:34:19;;;;;;;;;;;;;;;8.56;100.00;101470.41;6174340;23;19927;-77
2024/03/21 02:36:45;;;;;;;;;;;;;;;8.44;100.00;101477.91;6162044;23;19932;-76
2024/03/21 02:39:10;;;;;;;;;;;;;;;8.35;100.00;101474.38;6159175;23;20301;-77
2024/03/21 02:41:35;;;;;;;;;;;;;;;8.38;100.00;101475.88;6158126;23;19940;-76
2024/03/21 02:44:00;;;;;;;;;;;;;;;8.54;100.00;101473.22;6159198;23;20491;-76
2024/03/21 02:46:26;;;;;;;;;;;;;;;8.55;100.00;101463.34;6155932;23;19912;-76
2024/03/21 02:48:51;;;;;;;;;;;;;;;8.63;100.00;101448.06;6156541;23;19971;-75
2024/03/21 02:51:16;;;;;;;;;;;;;;;8.81;100.00;101452.41;6157328;23;19917;-75
2024/03/21 02:53:41;;;;;;;;;;;;;;;8.85;100.00;101456.41;6156512;23;19924;-75
2024/03/21 02:56:07;;;;;;;;;;;;;;;8.85;100.00;101452.91;6156254;23;20234;-75
2024/03/21 02:58:32;;;;;;;;;;;;;;;8.90;100.00;101459.44;6157514;23;19913;-76
2024/03/21 03:01:00;;;;;;;;;;;;;;;8.76;100.00;101476.25;6155789;23;20325;-75
2024/03/21 03:03:25;;;;;;;;;;;;;;;8.61;100.00;101481.44;6155580;23;19913;-75
2024/03/21 03:05:50;;;;;;;;;;;;;;;8.53;100.00;101481.47;6156637;23;19912;-75
2024/03/21 03:08:16;;;;;;;;;;;;;;;8.48;100.00;101477.44;6155892;23;20299;-76
2024/03/21 03:10:41;;;;;;;;;;;;;;;8.48;100.00;101487.31;6156080;23;19975;-76
2024/03/21 03:13:09;;;;;;;;;;;;;;;8.43;100.00;101493.16;6156289;23;20322;-76
2024/03/21 03:15:34;;;;;;;;;;;;;;;8.42;100.00;101496.84;6155642;23;19913;-77
2024/03/21 03:18:00;;;;;;;;;;;;;;;8.40;100.00;101495.34;6156081;23;19912;-76
2024/03/21 03:20:25;;;;;;;;;;;;;;;8.37;100.00;101495.66;6155435;23;19920;-76
2024/03/21 03:22:50;;;;;;;;;;;;;;;8.35;100.00;101496.66;6155455;23;19944;-75
2024/03/21 03:25:15;;;;;;;;;;;;;;;8.32;100.00;101504.22;6155209;23;19916;-75
2024/03/21 03:27:41;;;;;;;;;;;;;;;8.32;100.00;101507.72;6155884;23;20308;-76
2024/03/21 03:30:06;;;;;;;;;;;;;;;8.34;100.00;101511.09;6155566;23;20270;-75
2024/03/21 03:32:33;;;;;;;;;;;;;;;8.29;100.00;101508.09;6155309;23;19917;-75
2024/03/21 03:37:42;;;;;;;;;;;;;;;8.19;100.00;101515.41;6155733;23;19923;-77
2024/03/21 03:40:09;;;;;;;;;;;;;;;8.20;100.00;101519.78;6155390;23;19917;-76
2024/03/21 03:42:34;;;;;;;;;;;;;;;8.21;100.00;101516.09;6153974;23;19912;-76
2024/03/21 03:44:59;;;;;;;;;;;;;;;8.24;100.00;101523.81;6155128;23;19932;-75
2024/03/21 03:47:25;;;;;;;;;;;;;;;8.23;100.00;101521.28;6154343;23;20266;-76
2024/03/21 03:49:50;;;;;;;;;;;;;;;8.22;100.00;101528.50;6154242;23;20379;-76
2024/03/21 03:52:15;;;;;;;;;;;;;;;8.28;100.00;101533.22;6154653;23;20266;-76
2024/03/21 03:54:40;;;;;;;;;;;;;;;8.31;100.00;101535.56;6154547;23;20276;-76
2024/03/21 03:57:09;;;;;;;;;;;;;;;8.32;100.00;101534.53;6153828;23;20278;-76
2024/03/21 03:59:35;;;;;;;;;;;;;;;8.35;100.00;101533.41;6154687;23;19959;-76
2024/03/21 04:02:01;;;;;;;;;;;;;;;8.39;100.00;101544.63;6154417;23;19923;-77
2024/03/21 04:04:26;;;;;;;;;;;;;;;8.38;100.00;101542.94;6153445;23;19912;-77
2024/03/21 04:06:53;;;;;;;;;;;;;;;8.33;100.00;101546.97;6155334;23;19917;-77
2024/03/21 04:09:18;;;;;;;;;;;;;;;8.30;100.00;101551.81;6154035;23;19942;-76
2024/03/21 04:11:43;;;;;;;;;;;;;;;8.28;100.00;101543.94;6154150;23;20296;-77
2024/03/21 04:14:09;;;;;;;;;;;;;;;8.25;100.00;101548.78;6155656;23;20245;-76
2024/03/21 04:16:37;;;;;;;;;;;;;;;8.14;100.00;101557.97;6153336;23;20159;-77
2024/03/21 04:19:04;;;;;;;;;;;;;;;8.05;100.00;101554.44;6154368;23;20325;-77
2024/03/21 04:21:30;;;;;;;;;;;;;;;8.02;100.00;101563.66;6155151;23;20318;-77
2024/03/21 04:23:55;;;;;;;;;;;;;;;8.03;100.00;101573.38;6154864;23;19912;-76
2024/03/21 04:26:20;;;;;;;;;;;;;;;8.11;100.00;101574.41;6156490;23;19919;-76
2024/03/21 04:28:45;;;;;;;;;;;;;;;8.12;100.00;101574.25;6174536;23;19919;-76
2024/03/21 04:31:11;;;;;;;;;;;;;;;8.17;100.00;101582.66;6166704;23;20045;-76
2024/03/21 04:34:01;;;;;;;;;;;;;;;8.26;100.00;101588.03;6163589;23;19916;-76
2024/03/21 04:36:27;;;;;;;;;;;;;;;8.32;100.00;101584.69;6164636;23;19924;-76
2024/03/21 04:38:52;;;;;;;;;;;;;;;8.37;100.00;101586.88;6155603;23;19920;-77
2024/03/21 04:41:17;;;;;;;;;;;;;;;8.43;100.00;101584.38;6154770;23;20384;-77
2024/03/21 04:43:43;;;;;;;;;;;;;;;8.41;100.00;101588.22;6155448;23;20234;-77
2024/03/21 04:46:08;;;;;;;;;;;;;;;8.41;100.00;101601.66;6153544;23;19920;-76
2024/03/21 04:48:33;;;;;;;;;;;;;;;8.45;100.00;101603.84;6154651;23;19966;-77
2024/03/21 04:50:59;;;;;;;;;;;;;;;8.51;100.00;101605.03;6155134;23;19955;-77
2024/03/21 04:53:24;;;;;;;;;;;;;;;8.56;100.00;101631.41;6153425;23;19913;-76
2024/03/21 04:55:49;;;;;;;;;;;;;;;8.56;100.00;101618.81;6154138;23;19917;-77
2024/03/21 04:58:15;;;;;;;;;;;;;;;8.53;100.00;101616.47;6129311;23;20715;-77
2024/03/21 05:00:40;;;;;;;;;;;;;;;8.50;100.00;101622.16;6153441;23;20322;-74
2024/03/21 05:03:05;;;;;;;;;;;;;;;8.45;100.00;101624.47;6154054;23;20372;-77
2024/03/21 05:05:30;;;;;;;;;;;;;;;8.40;100.00;101621.44;6155004;23;19940;-77
2024/03/21 05:07:55;;;;;;;;;;;;;;;8.40;100.00;101622.25;6153221;23;20039;-77
2024/03/21 05:10:21;;;;;;;;;;;;;;;8.39;100.00;101617.91;6154454;23;19916;-77
2024/03/21 05:12:46;;;;;;;;;;;;;;;8.40;100.00;101611.53;6156369;23;20377;-77
2024/03/21 05:15:11;;;;;;;;;;;;;;;8.31;100.00;101617.88;6155672;23;20348;-77
2024/03/21 05:17:36;;;;;;;;;;;;;;;8.20;100.00;101627.06;6156352;23;19916;-78
2024/03/21 05:20:02;;;;;;;;;;;;;;;8.16;100.00;101631.06;6156412;23;19971;-79
2024/03/21 05:22:28;;;;;;;;;;;;;;;8.00;100.00;101643.41;6156004;23;19912;-79
2024/03/21 05:24:56;;;;;;;;;;;;;;;7.87;100.00;101643.00;6156958;23;20018;-78
2024/03/21 05:27:21;;;;;;;;;;;;;;;7.77;100.00;101659.22;6156840;23;19948;-77
2024/03/21 05:29:46;;;;;;;;;;;;;;;7.82;100.00;101654.22;6155293;23;19964;-77
2024/03/21 05:32:11;;;;;;;;;;;;;;;7.85;100.00;101666.47;6155877;23;19924;-78
2024/03/21 05:34:36;;;;;;;;;;;;;;;7.82;100.00;101672.13;6155949;23;20325;-76
2024/03/21 05:37:02;;;;;;;;;;;;;;;7.81;100.00;101673.13;6155884;23;20388;-78
2024/03/21 05:39:27;;;;;;;;;;;;;;;7.84;100.00;101675.50;6155934;23;20318;-77
2024/03/21 05:41:52;;;;;;;;;;;;;;;7.82;100.00;101666.78;6155332;23;19924;-78
2024/03/21 05:44:18;;;;;;;;;;;;;;;7.81;100.00;101678.50;6156311;23;19917;-78
2024/03/21 05:46:44;;;;;;;;;;;;;;;7.70;100.00;101683.13;6155789;23;20043;-78
2024/03/21 05:49:11;;;;;;;;;;;;;;;7.55;100.00;101687.38;6155754;23;19924;-77
2024/03/21 05:51:37;;;;;;;;;;;;;;;7.40;100.00;101690.63;6155639;23;19916;-77
2024/03/21 05:54:05;;;;;;;;;;;;;;;7.38;100.00;101697.09;6156269;23;19982;-77
2024/03/21 05:56:30;;;;;;;;;;;;;;;7.42;100.00;101710.03;6155640;23;19956;-77
2024/03/21 05:58:56;;;;;;;;;;;;;;;7.47;100.00;101709.59;6156282;23;19912;-76
2024/03/21 06:01:28;;;;;;;;;;;;;;;7.52;100.00;101709.13;6155363;23;19923;-77
2024/03/21 06:03:53;;;;;;;;;;;;;;;7.54;100.00;101720.53;6155713;23;19912;-77
2024/03/21 06:06:18;;;;;;;;;;;;;;;7.56;100.00;101727.41;6156135;23;19948;-76
2024/03/21 06:08:44;;;;;;;;;;;;;;;7.53;100.00;101726.88;6156668;23;20308;-77
2024/03/21 06:11:20;;;;;;;;;;;;;;;7.46;100.00;101720.44;6156158;23;19920;-77
2024/03/21 06:13:52;;;;;;;;;;;;;;;7.42;100.00;101733.31;6156571;23;20320;-77
2024/03/21 06:16:18;;;;;;;;;;;;;;;7.43;100.00;101737.69;6155327;23;19924;-76
2024/03/21 06:18:43;;;;;;;;;;;;;;;7.40;100.00;101736.16;6157639;23;19909;-77
2024/03/21 06:21:08;;;;;;;;;;;;;;;7.39;100.00;101739.84;6156220;23;19913;-77
2024/03/21 06:23:34;;;;;;;;;;;;;;;7.38;100.00;101746.19;6154746;23;19919;-77
2024/03/21 06:25:59;;;;;;;;;;;;;;;7.49;100.00;101742.44;6156469;23;19999;-77
2024/03/21 06:28:24;;;;;;;;;;;;;;;7.48;100.00;101746.09;6152700;23;19971;-78
2024/03/21 06:30:52;;;;;;;;;;;;;;;7.41;100.00;101751.22;6153607;23;19987;-77
2024/03/21 06:33:17;;;;;;;;;;;;;;;7.43;100.00;101754.59;6153660;23;19964;-76
2024/03/21 06:35:42;;;;;;;;;;;;;;;7.46;100.00;101758.81;6154642;23;19916;-76
2024/03/21 06:38:08;;;;;;;;;;;;;;;7.50;100.00;101754.81;6153508;23;20028;-77
2024/03/21 06:40:36;;;;;;;;;;;;;;;7.43;100.00;101765.31;6153774;23;19908;-76
2024/03/21 06:43:01;;;;;;;;;;;;;;;7.39;100.00;101771.13;6158854;23;19913;-77
2024/03/21 06:45:27;;;;;;;;;;;;;;;7.32;100.00;101781.59;6163490;23;20207;-75
2024/03/21 06:47:52;;;;;;;;;;;;;;;7.32;100.00;101784.28;6154289;23;20314;-77
2024/03/21 06:50:17;;;;;;;;;;;;;;;7.30;100.00;101775.56;6154443;23;19953;-75
2024/03/21 06:52:46;;;;;;;;;;;;;;;7.18;100.00;101787.50;6153102;23;19913;-76
2024/03/21 06:55:11;;;;;;;;;;;;;;;7.12;100.00;101787.09;6153855;23;19913;-77
2024/03/21 06:57:37;;;;;;;;;;;;;;;7.11;100.00;101795.28;6152719;23;19912;-76
2024/03/21 07:00:03;;;;;;;;;;;;;;;7.16;100.00;101800.19;6152620;23;19917;-77
2024/03/21 07:02:28;;;;;;;;;;;;;;;7.10;100.00;101802.47;6154698;23;19965;-76
2024/03/21 07:04:54;;;;;;;;;;;;;;;7.13;100.00;101799.50;6154405;23;19966;-74
2024/03/21 07:07:19;;;;;;;;;;;;;;;7.19;100.00;101800.72;6154438;23;19919;-76
2024/03/21 07:09:44;;;;;;;;;;;;;;;7.12;100.00;101805.84;6154456;23;19920;-76
2024/03/21 07:12:09;;;;;;;;;;;;;;;7.15;100.00;101811.91;6154393;23;19936;-77
2024/03/21 07:14:35;;;;;;;;;;;;;;;7.11;100.00;101825.56;6153354;23;19995;-76
2024/03/21 07:17:00;;;;;;;;;;;;;;;7.06;100.00;101838.56;6154602;23;19940;-76
2024/03/21 07:19:32;;;;;;;;;;;;;;;7.06;100.00;101843.09;6155489;23;19912;-76
2024/03/21 07:21:57;;;;;;;;;;;;;;;7.02;100.00;101845.22;6163047;23;19936;-76
2024/03/21 07:24:23;;;;;;;;;;;;;;;7.02;100.00;101853.25;6166885;23;19920;-77
2024/03/21 07:26:48;;;;;;;;;;;;;;;7.11;100.00;101857.72;6154887;23;19917;-75
2024/03/21 07:29:13;;;;;;;;;;;;;;;7.21;100.00;101859.50;6155197;23;19967;-76
2024/03/21 07:31:38;;;;;;;;;;;;;;;7.20;100.00;101860.50;6153065;23;19913;-76
2024/03/21 07:34:03;;;;;;;;;;;;;;;7.25;100.00;101858.19;6153398;23;19917;-77
2024/03/21 07:36:29;;;;;;;;;;;;;;;7.24;100.00;101857.38;6152294;23;19962;-73
2024/03/21 07:38:54;;;;;;;;;;;;;;;7.32;100.00;101858.47;6153380;23;19913;-75
2024/03/21 07:41:21;;;;;;;;;;;;;;;7.37;100.00;101857.00;6152628;23;19920;-75
2024/03/21 07:43:46;;;;;;;;;;;;;;;7.48;100.00;101860.44;6154059;23;19913;-76
2024/03/21 07:46:12;;;;;;;;;;;;;;;7.46;100.00;101867.78;6153497;23;19916;-77
2024/03/21 07:48:37;;;;;;;;;;;;;;;7.43;100.00;101861.75;6153164;23;19916;-74
2024/03/21 07:51:03;;;;;;;;;;;;;;;7.52;100.00;101873.38;6153622;23;19916;-74
2024/03/21 07:53:28;;;;;;;;;;;;;;;7.42;100.00;101877.97;6152182;23;19913;-76
2024/03/21 07:55:55;;;;;;;;;;;;;;;7.43;100.00;101869.78;6152903;23;20257;-75
2024/03/21 07:58:20;;;;;;;;;;;;;;;7.52;100.00;101875.25;6151991;23;19940;-75
2024/03/21 08:00:45;;;;;;;;;;;;;;;7.50;100.00;101893.31;6152095;23;19920;-75
2024/03/21 08:03:10;;;;;;;;;;;;;;;7.63;100.00;101893.78;6151040;23;19924;-75
2024/03/21 08:05:36;;;;;;;;;;;;;;;7.65;100.00;101899.00;6151663;23;19920;-75
2024/03/21 08:08:01;;;;;;;;;;;;;;;7.76;100.00;101908.66;6151453;23;19916;-74
2024/03/21 08:10:26;;;;;;;;;;;;;;;7.76;100.00;101906.81;6152040;23;19991;-74
2024/03/21 08:12:51;;;;;;;;;;;;;;;7.72;100.00;101925.03;6152047;23;19924;-75
2024/03/21 08:15:17;;;;;;;;;;;;;;;7.66;100.00;101920.28;6152198;23;19912;-75
2024/03/21 08:17:42;;;;;;;;;;;;;;;7.58;100.00;101917.53;6152311;23;19920;-75
2024/03/21 08:20:07;;;;;;;;;;;;;;;7.67;100.00;101926.50;6153476;23;19912;-75
2024/03/21 08:22:32;;;;;;;;;;;;;;;7.78;100.00;101936.13;6152223;23;20041;-74
2024/03/21 08:24:58;;;;;;;;;;;;;;;7.81;100.00;101928.66;6151868;23;19954;-75
2024/03/21 08:27:23;;;;;;;;;;;;;;;7.68;100.00;101945.09;6153034;23;19919;-75
2024/03/21 08:29:51;;;;;;;;;;;;;;;7.77;100.00;101945.16;6152123;23;19991;-75
2024/03/21 08:32:21;;;;;;;;;;;;;;;7.83;100.00;101948.09;6151787;23;19955;-75
2024/03/21 08:34:46;;;;;;;;;;;;;;;7.94;100.00;101933.63;6153349;23;20233;-75
2024/03/21 08:37:11;;;;;;;;;;;;;;;7.93;100.00;101937.31;6152341;23;19917;-75
2024/03/21 08:39:36;;;;;;;;;;;;;;;8.02;100.00;101940.91;6152190;23;19912;-75
2024/03/21 08:42:02;;;;;;;;;;;;;;;8.09;99.99;101936.59;6152938;23;20112;-75
2024/03/21 08:44:27;;;;;;;;;;;;;;;8.17;99.20;101936.69;6152062;23;19919;-74
2024/03/21 08:46:52;;;;;;;;;;;;;;;8.31;98.12;101939.81;6153065;23;19913;-74
2024/03/21 08:49:17;;;;;;;;;;;;;;;8.32;97.81;101930.78;6156920;23;19920;-74
2024/03/21 08:51:43;;;;;;;;;;;;;;;8.39;96.72;101936.34;6154102;23;20310;-74
2024/03/21 08:54:08;;;;;;;;;;;;;;;8.51;97.20;101929.75;6155896;23;20214;-74
2024/03/21 08:56:34;;;;;;;;;;;;;;;8.59;96.04;101937.88;6156179;23;20269;-74
2024/03/21 08:59:05;;;;;;;;;;;;;;;8.47;96.62;101942.63;6154222;23;20014;-76
2024/03/21 09:01:31;;;;;;;;;;;;;;;8.34;95.89;101944.88;6155134;23;19913;-75
2024/03/21 09:03:56;;;;;;;;;;;;;;;8.52;95.86;101958.28;6156552;23;19955;-75
2024/03/21 09:06:22;;;;;;;;;;;;;;;8.77;94.69;101953.94;6154831;23;20233;-75
2024/03/21 09:08:48;;;;;;;;;;;;;;;8.68;95.34;101962.09;6155246;23;19923;-75
2024/03/21 09:11:13;;;;;;;;;;;;;;;8.59;95.93;101970.09;6156460;23;19912;-76
2024/03/21 09:13:38;;;;;;;;;;;;;;;8.58;95.87;101967.56;6154037;23;19912;-76
2024/03/21 09:16:04;;;;;;;;;;;;;;;8.69;95.03;101971.81;6155197;23;19936;-77
2024/03/21 09:18:29;;;;;;;;;;;;;;;8.52;96.19;101971.72;6155980;23;19917;-77
2024/03/21 09:20:56;;;;;;;;;;;;;;;8.46;96.96;101969.63;6154690;23;20015;-76
2024/03/21 09:23:21;;;;;;;;;;;;;;;8.58;97.78;101973.78;6155622;23;19970;-76
2024/03/21 09:25:47;;;;;;;;;;;;;;;8.42;95.88;101976.31;6155607;23;19963;-76
2024/03/21 09:28:12;;;;;;;;;;;;;;;8.75;94.62;101979.25;6154079;23;19916;-76
2024/03/21 09:30:38;;;;;;;;;;;;;;;8.93;92.25;101977.38;6155763;23;19913;-76
2024/03/21 09:33:03;;;;;;;;;;;;;;;8.96;91.95;101986.94;6155356;23;20226;-76
2024/03/21 09:35:28;;;;;;;;;;;;;;;9.09;91.04;101991.91;6155357;23;20376;-76
2024/03/21 09:37:53;;;;;;;;;;;;;;;9.17;89.68;101994.66;6156159;23;19909;-76
2024/03/21 09:40:20;;;;;;;;;;;;;;;9.15;90.73;102004.72;6156444;23;19987;-76
2024/03/21 09:42:46;;;;;;;;;;;;;;;9.14;91.74;102007.53;6154919;23;20437;-76
2024/03/21 09:45:11;;;;;;;;;;;;;;;9.27;90.50;102005.25;6129340;23;19909;-76
2024/03/21 09:47:36;;;;;;;;;;;;;;;9.39;90.25;102013.88;6155506;23;19963;-76
2024/03/21 09:50:02;;;;;;;;;;;;;;;9.46;90.43;102017.63;6129249;23;19917;-76
2024/03/21 09:52:27;;;;;;;;;;;;;;;9.56;90.08;102012.97;6155500;23;19962;-76
2024/03/21 09:54:55;;;;;;;;;;;;;;;9.54;90.60;102012.28;6131315;23;19936;-76
2024/03/21 09:57:21;;;;;;;;;;;;;;;9.48;90.41;102014.78;6129930;23;19988;-77
2024/03/21 09:59:46;;;;;;;;;;;;;;;9.64;89.27;102024.75;6127548;23;19944;-76
2024/03/21 10:02:14;;;;;;;;;;;;;;;9.60;88.67;102020.72;6154207;23;20266;-76
2024/03/21 10:04:40;;;;;;;;;;;;;;;9.39;89.58;102035.38;6154516;23;19919;-76
2024/03/21 10:07:14;;;;;;;;;;;;;;;9.27;90.68;102032.13;6153162;23;20144;-76
2024/03/21 10:09:40;;;;;;;;;;;;;;;9.19;89.00;102027.53;6154376;23;19913;-76
2024/03/21 10:12:05;;;;;;;;;;;;;;;9.40;89.64;102043.31;6167575;23;20272;-76
2024/03/21 10:14:31;;;;;;;;;;;;;;;9.76;86.89;102039.59;6169803;23;19912;-76
2024/03/21 10:16:56;;;;;;;;;;;;;;;9.72;86.76;102048.97;6172038;23;20281;-76
2024/03/21 10:19:21;;;;;;;;;;;;;;;9.41;86.35;102060.25;6172180;23;19996;-76
2024/03/21 10:21:49;;;;;;;;;;;;;;;9.73;84.94;102057.91;6165731;23;19920;-75
2024/03/21 10:24:14;;;;;;;;;;;;;;;9.96;85.48;102048.25;6156390;23;20007;-76
2024/03/21 10:26:39;;;;;;;;;;;;;;;10.44;83.12;102050.41;6156648;23;19913;-76
2024/03/21 10:29:04;;;;;;;;;;;;;;;10.30;82.36;102049.16;6129340;23;19912;-76
2024/03/21 10:31:30;;;;;;;;;;;;;;;10.31;81.33;102049.00;6128718;23;20043;-76
2024/03/21 10:33:57;;;;;;;;;;;;;;;10.41;82.72;102054.25;6156410;23;19955;-77
2024/03/21 10:36:22;;;;;;;;;;;;;;;10.13;83.59;102053.69;6153700;23;19916;-75
2024/03/21 10:38:50;;;;;;;;;;;;;;;10.43;84.11;102059.47;6152964;23;20345;-77
2024/03/21 10:41:22;;;;;;;;;;;;;;;10.79;81.17;102058.31;6155135;23;19962;-75
2024/03/21 10:43:52;;;;;;;;;;;;;;;10.52;82.82;102058.47;6125767;23;20353;-76
2024/03/21 10:46:18;;;;;;;;;;;;;;;10.87;80.89;102055.63;6153466;23;19916;-74
2024/03/21 10:48:43;;;;;;;;;;;;;;;10.90;80.62;102052.59;6153468;23;19967;-77
2024/03/21 10:51:09;;;;;;;;;;;;;;;11.08;78.43;102057.78;6152888;23;19936;-78
2024/03/21 10:53:36;;;;;;;;;;;;;;;11.06;78.76;102062.50;6151368;23;19916;-76
2024/03/21 10:56:03;;;;;;;;;;;;;;;10.84;79.83;102056.81;6155423;23;19932;-77
2024/03/21 10:58:28;;;;;;;;;;;;;;;10.57;80.98;102068.75;6153191;23;19908;-76
2024/03/21 11:00:54;;;;;;;;;;;;;;;10.64;81.72;102072.44;6153920;23;19967;-77
2024/03/21 11:03:19;;;;;;;;;;;;;;;10.86;81.99;102070.09;6172387;23;19912;-76
2024/03/21 11:05:53;;;;;;;;;;;;;;;11.06;80.72;102067.91;6160514;23;19916;-75
2024/03/21 11:08:28;;;;;;;;;;;;;;;10.93;79.53;102073.81;6155863;23;19919;-77
2024/03/21 11:10:54;;;;;;;;;;;;;;;10.38;82.99;102083.31;6154250;23;20097;-74
2024/03/21 11:13:19;;;;;;;;;;;;;;;10.02;83.34;102077.19;6127355;23;20357;-74
2024/03/21 11:15:44;;;;;;;;;;;;;;;9.95;84.27;102075.31;6126480;23;19913;-76
2024/03/21 11:18:10;;;;;;;;;;;;;;;10.09;84.45;102080.06;6153772;23;19908;-75
2024/03/21 11:20:35;;;;;;;;;;;;;;;10.07;84.00;102087.44;6153624;23;20374;-74
2024/03/21 11:23:00;;;;;;;;;;;;;;;9.75;85.52;102090.88;6153069;23;19967;-74
2024/03/21 11:25:25;;;;;;;;;;;;;;;9.81;87.12;102087.50;6154009;23;20305;-74
2024/03/21 11:27:51;;;;;;;;;;;;;;;10.25;84.43;102081.97;6152561;23;19916;-74
2024/03/21 11:30:16;;;;;;;;;;;;;;;10.76;80.27;102081.91;6152996;23;19916;-74
2024/03/21 11:32:41;;;;;;;;;;;;;;;10.80;79.63;102073.47;6152016;23;19921;-74
2024/03/21 11:35:06;;;;;;;;;;;;;;;11.54;78.04;102073.38;6152103;23;19963;-74
2024/03/21 11:37:32;;;;;;;;;;;;;;;12.00;75.84;102079.97;6152189;23;19924;-74
2024/03/21 11:39:57;;;;;;;;;;;;;;;12.64;71.50;102084.31;6127497;23;19913;-74
2024/03/21 11:42:24;;;;;;;;;;;;;;;13.08;68.34;102075.47;6151843;23;19923;-74
2024/03/21 11:44:50;;;;;;;;;;;;;;;13.44;67.79;102080.22;6152587;23;20292;-73
2024/03/21 11:47:16;;;;;;;;;;;;;;;13.35;67.75;102073.19;6152754;23;20004;-75
2024/03/21 11:49:41;;;;;;;;;;;;;;;13.11;69.25;102074.28;6152369;23;19940;-75
2024/03/21 11:52:16;;;;;;;;;;;;;;;12.62;69.30;102073.66;6152369;23;19917;-75
2024/03/21 11:54:42;;;;;;;;;;;;;;;12.70;69.15;102072.78;6153197;23;19959;-74
2024/03/21 11:57:07;;;;;;;;;;;;;;;12.77;68.50;102081.00;6152819;23;19921;-74
2024/03/21 11:59:38;;;;;;;;;;;;;;;12.88;68.55;102078.69;6152325;23;19917;-75
2024/03/21 12:02:03;;;;;;;;;;;;;;;12.30;71.25;102080.16;6152327;23;19920;-75
2024/03/21 12:04:29;;;;;;;;;;;;;;;12.12;72.84;102075.84;6127045;23;19991;-75
2024/03/21 12:06:55;;;;;;;;;;;;;;;12.72;71.25;102078.81;6151958;23;19941;-75
2024/03/21 12:09:23;;;;;;;;;;;;;;;13.14;68.61;102073.91;6152152;23;20019;-75
2024/03/21 12:11:49;;;;;;;;;;;;;;;13.53;67.95;102072.03;6152349;23;19984;-75
2024/03/21 12:14:14;;;;;;;;;;;;;;;13.54;67.71;102077.22;6152403;23;19940;-75
2024/03/21 12:16:39;;;;;;;;;;;;;;;13.36;66.26;102072.16;6152752;23;19916;-74
2024/03/21 12:19:05;;;;;;;;;;;;;;;13.15;67.67;102071.03;6153060;23;19967;-75
2024/03/21 12:21:30;;;;;;;;;;;;;;;13.59;65.87;102071.28;6151230;23;20318;-75
2024/03/21 12:23:55;;;;;;;;;;;;;;;13.74;65.35;102069.41;6152481;23;20222;-76
2024/03/21 12:26:20;;;;;;;;;;;;;;;13.74;66.14;102076.66;6153111;23;20262;-75
2024/03/21 12:28:46;;;;;;;;;;;;;;;14.05;64.83;102081.00;6151399;23;20170;-75
2024/03/21 12:31:18;;;;;;;;;;;;;;;14.92;62.21;102076.50;6152515;23;20126;-75
2024/03/21 12:33:44;;;;;;;;;;;;;;;15.56;58.18;102085.50;6153029;23;19916;-75
2024/03/21 12:36:10;;;;;;;;;;;;;;;14.88;58.80;102088.75;6152346;23;19916;-75